sensor_id;sensor_type;location;lat;lon;timestamp;pressure;altitude;pressure_sealevel;temperature;humidity
11349;BME280;5729;43.570;27.826;2023-05-09T00:00:00;99690.72;;;10.97;100.00
11349;BME280;5729;43.570;27.826;2023-05-09T00:02:26;99687.59;;;10.95;100.00
11349;BME280;5729;43.570;27.826;2023-05-09T00:04:54;99685.13;;;10.89;100.00
11349;BME280;5729;43.570;27.826;2023-05-09T00:07:19;99682.97;;;10.95;100.00
11349;BME280;5729;43.570;27.826;2023-05-09T00:09:45;99691.38;;;11.06;100.00
11349;BME280;5729;43.570;27.826;2023-05-09T00:12:10;99684.53;;;10.96;100.00
11349;BME280;5729;43.570;27.826;2023-05-09T00:14:36;99680.63;;;10.94;100.00
11349;BME280;5729;43.570;27.826;2023-05-09T00:17:05;99679.56;;;10.82;100.00
11349;BME280;5729;43.570;27.826;2023-05-09T00:19:30;99684.25;;;10.85;100.00
11349;BME280;5729;43.570;27.826;2023-05-09T00:21:56;99679.06;;;10.93;100.00
11349;BME280;5729;43.570;27.826;2023-05-09T00:24:21;99683.81;;;10.83;100.00
11349;BME280;5729;43.570;27.826;2023-05-09T00:26:47;99681.41;;;10.94;100.00
11349;BME280;5729;43.570;27.826;2023-05-09T00:29:12;99682.25;;;10.82;100.00
11349;BME280;5729;43.570;27.826;2023-05-09T00:31:38;99680.88;;;10.88;100.00
11349;BME280;5729;43.570;27.826;2023-05-09T00:34:03;99681.34;;;10.78;100.00
11349;BME280;5729;43.570;27.826;2023-05-09T00:36:28;99677.03;;;10.89;100.00
11349;BME280;5729;43.570;27.826;2023-05-09T00:38:54;99686.41;;;10.80;100.00
11349;BME280;5729;43.570;27.826;2023-05-09T00:41:20;99672.47;;;10.78;100.00
11349;BME280;5729;43.570;27.826;2023-05-09T00:43:45;99684.69;;;10.87;100.00
11349;BME280;5729;43.570;27.826;2023-05-09T00:46:12;99691.97;;;10.87;100.00
11349;BME280;5729;43.570;27.826;2023-05-09T00:48:37;99684.38;;;10.77;100.00
11349;BME280;5729;43.570;27.826;2023-05-09T00:51:03;99675.81;;;10.87;100.00
11349;BME280;5729;43.570;27.826;2023-05-09T00:53:29;99681.88;;;10.84;100.00
11349;BME280;5729;43.570;27.826;2023-05-09T00:55:55;99688.81;;;10.69;100.00
11349;BME280;5729;43.570;27.826;2023-05-09T00:58:21;99685.72;;;10.83;100.00
11349;BME280;5729;43.570;27.826;2023-05-09T01:00:46;99686.94;;;10.85;100.00
11349;BME280;5729;43.570;27.826;2023-05-09T01:03:12;99687.63;;;10.82;100.00
11349;BME280;5729;43.570;27.826;2023-05-09T01:08:24;99677.56;;;10.67;100.00
11349;BME280;5729;43.570;27.826;2023-05-09T01:11:31;99677.75;;;10.74;100.00
11349;BME280;5729;43.570;27.826;2023-05-09T01:16:38;99678.75;;;10.82;100.00
11349;BME280;5729;43.570;27.826;2023-05-09T01:21:42;99679.13;;;10.68;100.00
11349;BME280;5729;43.570;27.826;2023-05-09T01:24:14;99684.09;;;10.66;100.00
11349;BME280;5729;43.570;27.826;2023-05-09T01:30:15;99688.69;;;10.66;100.00
11349;BME280;5729;43.570;27.826;2023-05-09T01:32:36;99691.38;;;10.66;100.00
11349;BME280;5729;43.570;27.826;2023-05-09T01:35:04;99677.56;;;10.67;100.00
11349;BME280;5729;43.570;27.826;2023-05-09T01:37:35;99681.59;;;10.73;100.00
11349;BME280;5729;43.570;27.826;2023-05-09T01:40:11;99685.22;;;10.65;100.00
11349;BME280;5729;43.570;27.826;2023-05-09T01:42:58;99702.28;;;10.69;100.00
11349;BME280;5729;43.570;27.826;2023-05-09T01:45:25;99699.34;;;10.62;100.00
11349;BME280;5729;43.570;27.826;2023-05-09T01:47:52;99699.47;;;10.66;100.00
11349;BME280;5729;43.570;27.826;2023-05-09T01:50:18;99690.28;;;10.54;100.00
11349;BME280;5729;43.570;27.826;2023-05-09T01:52:46;99704.75;;;10.62;100.00
11349;BME280;5729;43.570;27.826;2023-05-09T01:55:14;99693.63;;;10.64;100.00
11349;BME280;5729;43.570;27.826;2023-05-09T01:57:42;99684.72;;;10.47;100.00
11349;BME280;5729;43.570;27.826;2023-05-09T02:00:09;99694.22;;;10.57;100.00
11349;BME280;5729;43.570;27.826;2023-05-09T02:02:37;99695.44;;;10.72;100.00
11349;BME280;5729;43.570;27.826;2023-05-09T02:05:03;99696.41;;;10.79;100.00
11349;BME280;5729;43.570;27.826;2023-05-09T02:07:30;99690.75;;;10.84;100.00
11349;BME280;5729;43.570;27.826;2023-05-09T02:09:57;99697.22;;;10.68;100.00
11349;BME280;5729;43.570;27.826;2023-05-09T02:12:23;99692.06;;;10.63;100.00
11349;BME280;5729;43.570;27.826;2023-05-09T02:14:49;99695.09;;;10.61;100.00
11349;BME280;5729;43.570;27.826;2023-05-09T02:17:15;99704.53;;;10.67;100.00
11349;BME280;5729;43.570;27.826;2023-05-09T02:19:42;99698.75;;;10.81;100.00
11349;BME280;5729;43.570;27.826;2023-05-09T02:22:08;99689.63;;;10.58;100.00
11349;BME280;5729;43.570;27.826;2023-05-09T02:24:35;99693.94;;;10.74;100.00
11349;BME280;5729;43.570;27.826;2023-05-09T02:27:04;99661.22;;;10.60;100.00
11349;BME280;5729;43.570;27.826;2023-05-09T02:29:43;99695.16;;;10.77;100.00
11349;BME280;5729;43.570;27.826;2023-05-09T02:32:13;99685.66;;;10.67;100.00
11349;BME280;5729;43.570;27.826;2023-05-09T02:34:39;99698.00;;;10.68;100.00
11349;BME280;5729;43.570;27.826;2023-05-09T02:37:06;99695.56;;;10.51;100.00
11349;BME280;5729;43.570;27.826;2023-05-09T02:39:32;99694.59;;;10.43;100.00
11349;BME280;5729;43.570;27.826;2023-05-09T02:42:07;99692.25;;;10.30;100.00
11349;BME280;5729;43.570;27.826;2023-05-09T02:44:33;99696.34;;;10.51;100.00
11349;BME280;5729;43.570;27.826;2023-05-09T02:46:59;99699.50;;;10.53;100.00
11349;BME280;5729;43.570;27.826;2023-05-09T02:49:25;99711.84;;;10.54;100.00
11349;BME280;5729;43.570;27.826;2023-05-09T02:51:52;99711.75;;;10.39;100.00
11349;BME280;5729;43.570;27.826;2023-05-09T02:54:17;99716.72;;;10.37;100.00
11349;BME280;5729;43.570;27.826;2023-05-09T02:56:43;99721.09;;;10.29;100.00
11349;BME280;5729;43.570;27.826;2023-05-09T02:59:08;99708.53;;;10.33;100.00
11349;BME280;5729;43.570;27.826;2023-05-09T03:01:33;99713.91;;;10.09;100.00
11349;BME280;5729;43.570;27.826;2023-05-09T03:04:00;99712.34;;;10.20;100.00
11349;BME280;5729;43.570;27.826;2023-05-09T03:06:25;99710.31;;;10.41;100.00
11349;BME280;5729;43.570;27.826;2023-05-09T03:08:51;99716.59;;;10.45;100.00
11349;BME280;5729;43.570;27.826;2023-05-09T03:11:16;99713.13;;;10.33;100.00
11349;BME280;5729;43.570;27.826;2023-05-09T03:13:42;99714.38;;;10.35;100.00
11349;BME280;5729;43.570;27.826;2023-05-09T03:16:07;99718.38;;;10.41;100.00
11349;BME280;5729;43.570;27.826;2023-05-09T03:18:33;99716.50;;;10.30;100.00
11349;BME280;5729;43.570;27.826;2023-05-09T03:20:58;99714.38;;;10.35;100.00
11349;BME280;5729;43.570;27.826;2023-05-09T03:23:23;99717.13;;;10.51;100.00
11349;BME280;5729;43.570;27.826;2023-05-09T03:25:49;99720.75;;;10.43;100.00
11349;BME280;5729;43.570;27.826;2023-05-09T03:28:14;99722.78;;;10.46;100.00
11349;BME280;5729;43.570;27.826;2023-05-09T03:30:40;99735.13;;;10.47;100.00
11349;BME280;5729;43.570;27.826;2023-05-09T03:33:06;99737.38;;;10.45;100.00
11349;BME280;5729;43.570;27.826;2023-05-09T03:35:31;99734.00;;;10.48;100.00
11349;BME280;5729;43.570;27.826;2023-05-09T03:37:57;99736.13;;;10.54;100.00
11349;BME280;5729;43.570;27.826;2023-05-09T03:40:22;99740.84;;;10.58;100.00
11349;BME280;5729;43.570;27.826;2023-05-09T03:42:48;99741.97;;;10.57;100.00
11349;BME280;5729;43.570;27.826;2023-05-09T03:45:13;99741.84;;;10.53;100.00
11349;BME280;5729;43.570;27.826;2023-05-09T03:47:39;99737.16;;;10.38;100.00
11349;BME280;5729;43.570;27.826;2023-05-09T03:50:05;99741.97;;;10.44;100.00
11349;BME280;5729;43.570;27.826;2023-05-09T03:52:30;99743.22;;;10.47;100.00
11349;BME280;5729;43.570;27.826;2023-05-09T03:54:56;99738.34;;;10.52;100.00
11349;BME280;5729;43.570;27.826;2023-05-09T03:57:21;99752.94;;;10.51;100.00
11349;BME280;5729;43.570;27.826;2023-05-09T03:59:47;99749.94;;;10.41;100.00
11349;BME280;5729;43.570;27.826;2023-05-09T04:02:12;99746.47;;;10.40;100.00
11349;BME280;5729;43.570;27.826;2023-05-09T04:04:38;99755.22;;;10.49;100.00
11349;BME280;5729;43.570;27.826;2023-05-09T04:07:03;99752.88;;;10.48;100.00
11349;BME280;5729;43.570;27.826;2023-05-09T04:09:29;99751.84;;;10.52;100.00
11349;BME280;5729;43.570;27.826;2023-05-09T04:11:54;99755.56;;;10.48;100.00
11349;BME280;5729;43.570;27.826;2023-05-09T04:14:20;99750.81;;;10.57;100.00
11349;BME280;5729;43.570;27.826;2023-05-09T04:16:45;99760.56;;;10.62;100.00
11349;BME280;5729;43.570;27.826;2023-05-09T04:19:11;99764.50;;;10.76;100.00
11349;BME280;5729;43.570;27.826;2023-05-09T04:21:36;99761.13;;;10.79;100.00
11349;BME280;5729;43.570;27.826;2023-05-09T04:24:02;99762.78;;;10.84;100.00
11349;BME280;5729;43.570;27.826;2023-05-09T04:26:27;99762.88;;;10.87;100.00
11349;BME280;5729;43.570;27.826;2023-05-09T04:28:54;99760.44;;;10.82;100.00
11349;BME280;5729;43.570;27.826;2023-05-09T04:31:19;99771.88;;;10.91;100.00
11349;BME280;5729;43.570;27.826;2023-05-09T04:33:45;99773.66;;;11.00;100.00
11349;BME280;5729;43.570;27.826;2023-05-09T04:36:10;99772.47;;;11.13;100.00
11349;BME280;5729;43.570;27.826;2023-05-09T04:38:36;99770.59;;;11.29;100.00
11349;BME280;5729;43.570;27.826;2023-05-09T04:41:01;99772.91;;;11.43;100.00
11349;BME280;5729;43.570;27.826;2023-05-09T04:43:27;99774.25;;;11.49;100.00
11349;BME280;5729;43.570;27.826;2023-05-09T04:45:52;99782.59;;;11.44;100.00
11349;BME280;5729;43.570;27.826;2023-05-09T04:48:18;99778.94;;;11.52;100.00
11349;BME280;5729;43.570;27.826;2023-05-09T04:50:44;99768.59;;;11.54;100.00
11349;BME280;5729;43.570;27.826;2023-05-09T04:53:12;99773.91;;;11.66;100.00
11349;BME280;5729;43.570;27.826;2023-05-09T04:55:38;99778.28;;;11.71;100.00
11349;BME280;5729;43.570;27.826;2023-05-09T04:58:03;99769.66;;;11.65;100.00
11349;BME280;5729;43.570;27.826;2023-05-09T05:00:29;99778.69;;;11.57;100.00
11349;BME280;5729;43.570;27.826;2023-05-09T05:02:54;99774.13;;;11.73;100.00
11349;BME280;5729;43.570;27.826;2023-05-09T05:05:20;99785.91;;;11.81;100.00
11349;BME280;5729;43.570;27.826;2023-05-09T05:07:45;99783.38;;;11.88;100.00
11349;BME280;5729;43.570;27.826;2023-05-09T05:10:11;99788.97;;;11.79;100.00
11349;BME280;5729;43.570;27.826;2023-05-09T05:12:37;99792.97;;;12.01;100.00
11349;BME280;5729;43.570;27.826;2023-05-09T05:15:03;99796.91;;;12.04;100.00
11349;BME280;5729;43.570;27.826;2023-05-09T05:17:29;99789.56;;;12.20;100.00
11349;BME280;5729;43.570;27.826;2023-05-09T05:19:54;99798.81;;;12.03;100.00
11349;BME280;5729;43.570;27.826;2023-05-09T05:22:20;99786.19;;;12.07;100.00
11349;BME280;5729;43.570;27.826;2023-05-09T05:24:45;99774.59;;;12.07;100.00
11349;BME280;5729;43.570;27.826;2023-05-09T05:27:11;99780.88;;;12.11;100.00
11349;BME280;5729;43.570;27.826;2023-05-09T05:29:36;99780.59;;;12.31;100.00
11349;BME280;5729;43.570;27.826;2023-05-09T05:32:02;99774.41;;;12.31;100.00
11349;BME280;5729;43.570;27.826;2023-05-09T05:34:27;99793.31;;;12.47;100.00
11349;BME280;5729;43.570;27.826;2023-05-09T05:36:52;99787.56;;;12.48;100.00
11349;BME280;5729;43.570;27.826;2023-05-09T05:39:18;99786.97;;;12.39;100.00
11349;BME280;5729;43.570;27.826;2023-05-09T05:41:43;99793.16;;;12.24;100.00
11349;BME280;5729;43.570;27.826;2023-05-09T05:44:09;99789.50;;;12.16;100.00
11349;BME280;5729;43.570;27.826;2023-05-09T05:46:34;99794.22;;;12.04;100.00
11349;BME280;5729;43.570;27.826;2023-05-09T05:48:59;99791.84;;;12.02;100.00
11349;BME280;5729;43.570;27.826;2023-05-09T05:51:25;99807.63;;;12.00;100.00
11349;BME280;5729;43.570;27.826;2023-05-09T05:53:50;99798.91;;;11.91;100.00
11349;BME280;5729;43.570;27.826;2023-05-09T05:56:16;99793.56;;;11.79;100.00
11349;BME280;5729;43.570;27.826;2023-05-09T05:58:41;99801.50;;;11.87;100.00
11349;BME280;5729;43.570;27.826;2023-05-09T06:01:06;99800.75;;;12.03;100.00
11349;BME280;5729;43.570;27.826;2023-05-09T06:03:32;99805.28;;;12.14;100.00
11349;BME280;5729;43.570;27.826;2023-05-09T06:05:58;99805.44;;;12.21;100.00
11349;BME280;5729;43.570;27.826;2023-05-09T06:08:23;99814.44;;;12.41;100.00
11349;BME280;5729;43.570;27.826;2023-05-09T06:10:48;99812.78;;;12.52;100.00
11349;BME280;5729;43.570;27.826;2023-05-09T06:13:14;99805.34;;;12.33;100.00
11349;BME280;5729;43.570;27.826;2023-05-09T06:15:39;99814.34;;;12.38;100.00
11349;BME280;5729;43.570;27.826;2023-05-09T06:18:05;99811.28;;;12.39;100.00
11349;BME280;5729;43.570;27.826;2023-05-09T06:20:31;99812.63;;;12.29;100.00
11349;BME280;5729;43.570;27.826;2023-05-09T06:22:57;99804.59;;;12.17;100.00
11349;BME280;5729;43.570;27.826;2023-05-09T06:25:22;99807.63;;;12.31;100.00
11349;BME280;5729;43.570;27.826;2023-05-09T06:27:47;99807.63;;;12.31;100.00
11349;BME280;5729;43.570;27.826;2023-05-09T06:30:13;99802.13;;;12.44;100.00
11349;BME280;5729;43.570;27.826;2023-05-09T06:32:38;99804.66;;;12.36;100.00
11349;BME280;5729;43.570;27.826;2023-05-09T06:35:04;99805.94;;;12.58;100.00
11349;BME280;5729;43.570;27.826;2023-05-09T06:37:33;99803.38;;;12.81;100.00
11349;BME280;5729;43.570;27.826;2023-05-09T06:39:58;99804.16;;;13.01;100.00
11349;BME280;5729;43.570;27.826;2023-05-09T06:42:24;99807.75;;;13.05;100.00
11349;BME280;5729;43.570;27.826;2023-05-09T06:44:49;99801.94;;;13.22;100.00
11349;BME280;5729;43.570;27.826;2023-05-09T06:47:14;99805.91;;;13.48;100.00
11349;BME280;5729;43.570;27.826;2023-05-09T06:49:40;99803.22;;;13.48;100.00
11349;BME280;5729;43.570;27.826;2023-05-09T06:52:05;99802.66;;;13.80;100.00
11349;BME280;5729;43.570;27.826;2023-05-09T06:54:31;99798.50;;;13.64;100.00
11349;BME280;5729;43.570;27.826;2023-05-09T06:56:56;99801.59;;;13.43;100.00
11349;BME280;5729;43.570;27.826;2023-05-09T06:59:22;99793.44;;;13.62;100.00
11349;BME280;5729;43.570;27.826;2023-05-09T07:01:47;99798.38;;;13.79;100.00
11349;BME280;5729;43.570;27.826;2023-05-09T07:04:12;99796.97;;;13.86;100.00
11349;BME280;5729;43.570;27.826;2023-05-09T07:06:38;99797.69;;;13.82;100.00
11349;BME280;5729;43.570;27.826;2023-05-09T07:09:03;99794.06;;;13.56;100.00
11349;BME280;5729;43.570;27.826;2023-05-09T07:11:36;99785.88;;;13.71;100.00
11349;BME280;5729;43.570;27.826;2023-05-09T07:14:02;99781.16;;;14.14;100.00
11349;BME280;5729;43.570;27.826;2023-05-09T07:16:27;99784.09;;;14.51;100.00
11349;BME280;5729;43.570;27.826;2023-05-09T07:18:54;99770.28;;;14.60;100.00
11349;BME280;5729;43.570;27.826;2023-05-09T07:21:19;99778.69;;;14.51;100.00
11349;BME280;5729;43.570;27.826;2023-05-09T07:23:45;99779.13;;;14.83;100.00
11349;BME280;5729;43.570;27.826;2023-05-09T07:26:10;99774.91;;;14.85;100.00
11349;BME280;5729;43.570;27.826;2023-05-09T07:28:36;99780.75;;;14.87;100.00
11349;BME280;5729;43.570;27.826;2023-05-09T07:31:01;99772.38;;;15.00;100.00
11349;BME280;5729;43.570;27.826;2023-05-09T07:33:27;99773.41;;;14.92;100.00
11349;BME280;5729;43.570;27.826;2023-05-09T07:35:52;99776.94;;;15.25;100.00
11349;BME280;5729;43.570;27.826;2023-05-09T07:38:18;99767.31;;;15.32;100.00
11349;BME280;5729;43.570;27.826;2023-05-09T07:40:43;99768.78;;;15.25;100.00
11349;BME280;5729;43.570;27.826;2023-05-09T07:43:09;99771.47;;;14.88;100.00
11349;BME280;5729;43.570;27.826;2023-05-09T07:45:34;99779.69;;;14.66;100.00
11349;BME280;5729;43.570;27.826;2023-05-09T07:48:00;99779.41;;;14.74;100.00
11349;BME280;5729;43.570;27.826;2023-05-09T07:50:26;99783.88;;;15.19;100.00
11349;BME280;5729;43.570;27.826;2023-05-09T07:52:51;99781.22;;;15.56;100.00
11349;BME280;5729;43.570;27.826;2023-05-09T07:55:17;99776.22;;;16.03;100.00
11349;BME280;5729;43.570;27.826;2023-05-09T07:57:42;99783.47;;;16.36;100.00
11349;BME280;5729;43.570;27.826;2023-05-09T08:00:08;99785.00;;;15.18;100.00
11349;BME280;5729;43.570;27.826;2023-05-09T08:02:34;99780.59;;;14.77;100.00
11349;BME280;5729;43.570;27.826;2023-05-09T08:05:00;99786.50;;;14.56;100.00
11349;BME280;5729;43.570;27.826;2023-05-09T08:07:26;99789.19;;;14.30;100.00
11349;BME280;5729;43.570;27.826;2023-05-09T08:09:51;99789.53;;;14.28;100.00
11349;BME280;5729;43.570;27.826;2023-05-09T08:12:16;99787.19;;;14.04;100.00
11349;BME280;5729;43.570;27.826;2023-05-09T08:14:42;99785.38;;;14.11;100.00
11349;BME280;5729;43.570;27.826;2023-05-09T08:17:07;99783.59;;;14.42;100.00
11349;BME280;5729;43.570;27.826;2023-05-09T08:19:33;99789.47;;;14.47;100.00
11349;BME280;5729;43.570;27.826;2023-05-09T08:21:58;99791.47;;;14.50;100.00
11349;BME280;5729;43.570;27.826;2023-05-09T08:24:24;99787.66;;;14.55;100.00
11349;BME280;5729;43.570;27.826;2023-05-09T08:26:50;99788.28;;;15.01;100.00
11349;BME280;5729;43.570;27.826;2023-05-09T08:29:15;99782.97;;;15.42;100.00
11349;BME280;5729;43.570;27.826;2023-05-09T08:31:42;99782.41;;;16.51;100.00
11349;BME280;5729;43.570;27.826;2023-05-09T08:34:07;99781.75;;;17.48;100.00
11349;BME280;5729;43.570;27.826;2023-05-09T08:36:33;99789.91;;;17.48;100.00
11349;BME280;5729;43.570;27.826;2023-05-09T08:38:58;99776.91;;;17.09;100.00
11349;BME280;5729;43.570;27.826;2023-05-09T08:41:24;99782.31;;;16.40;100.00
11349;BME280;5729;43.570;27.826;2023-05-09T08:43:53;99788.53;;;15.89;100.00
11349;BME280;5729;43.570;27.826;2023-05-09T08:46:25;99792.06;;;15.23;100.00
11349;BME280;5729;43.570;27.826;2023-05-09T08:48:52;99787.81;;;15.25;100.00
11349;BME280;5729;43.570;27.826;2023-05-09T08:51:18;99786.88;;;15.14;100.00
11349;BME280;5729;43.570;27.826;2023-05-09T08:53:44;99781.25;;;14.67;100.00
11349;BME280;5729;43.570;27.826;2023-05-09T08:56:10;99789.41;;;14.97;100.00
11349;BME280;5729;43.570;27.826;2023-05-09T08:58:36;99792.50;;;15.29;100.00
11349;BME280;5729;43.570;27.826;2023-05-09T09:01:02;99778.66;;;15.07;100.00
11349;BME280;5729;43.570;27.826;2023-05-09T09:03:32;99786.56;;;16.34;100.00
11349;BME280;5729;43.570;27.826;2023-05-09T09:05:58;99777.88;;;16.65;100.00
11349;BME280;5729;43.570;27.826;2023-05-09T09:08:25;99788.94;;;17.04;100.00
11349;BME280;5729;43.570;27.826;2023-05-09T09:10:51;99774.63;;;17.15;100.00
11349;BME280;5729;43.570;27.826;2023-05-09T09:13:19;99786.91;;;16.84;100.00
11349;BME280;5729;43.570;27.826;2023-05-09T09:15:47;99779.91;;;16.28;100.00
11349;BME280;5729;43.570;27.826;2023-05-09T09:18:28;99775.56;;;15.76;100.00
11349;BME280;5729;43.570;27.826;2023-05-09T09:21:10;99780.91;;;15.65;100.00
11349;BME280;5729;43.570;27.826;2023-05-09T09:23:38;99769.38;;;15.42;100.00
11349;BME280;5729;43.570;27.826;2023-05-09T09:26:05;99774.88;;;15.15;100.00
11349;BME280;5729;43.570;27.826;2023-05-09T09:28:31;99777.81;;;15.00;100.00
11349;BME280;5729;43.570;27.826;2023-05-09T09:30:57;99776.88;;;14.88;100.00
11349;BME280;5729;43.570;27.826;2023-05-09T09:33:24;99778.00;;;14.58;100.00
11349;BME280;5729;43.570;27.826;2023-05-09T09:35:51;99778.16;;;14.19;100.00
11349;BME280;5729;43.570;27.826;2023-05-09T09:38:18;99781.56;;;14.39;100.00
11349;BME280;5729;43.570;27.826;2023-05-09T09:43:19;99779.75;;;15.33;100.00
11349;BME280;5729;43.570;27.826;2023-05-09T09:45:48;99780.56;;;16.11;100.00
11349;BME280;5729;43.570;27.826;2023-05-09T09:48:14;99782.22;;;16.22;100.00
11349;BME280;5729;43.570;27.826;2023-05-09T09:50:40;99786.19;;;16.39;100.00
11349;BME280;5729;43.570;27.826;2023-05-09T09:53:06;99794.84;;;16.04;100.00
11349;BME280;5729;43.570;27.826;2023-05-09T09:55:33;99779.78;;;17.48;100.00
11349;BME280;5729;43.570;27.826;2023-05-09T09:57:59;99782.63;;;18.33;100.00
11349;BME280;5729;43.570;27.826;2023-05-09T10:00:26;99791.94;;;17.86;100.00
11349;BME280;5729;43.570;27.826;2023-05-09T10:02:56;99792.19;;;17.35;100.00
11349;BME280;5729;43.570;27.826;2023-05-09T10:05:24;99790.47;;;16.91;100.00
11349;BME280;5729;43.570;27.826;2023-05-09T10:07:57;99790.81;;;16.31;100.00
11349;BME280;5729;43.570;27.826;2023-05-09T10:10:28;99795.16;;;15.55;100.00
11349;BME280;5729;43.570;27.826;2023-05-09T10:13:08;99799.56;;;15.33;100.00
11349;BME280;5729;43.570;27.826;2023-05-09T10:15:35;99801.66;;;15.17;100.00
11349;BME280;5729;43.570;27.826;2023-05-09T10:18:03;99788.88;;;14.87;100.00
11349;BME280;5729;43.570;27.826;2023-05-09T10:20:30;99804.59;;;14.75;100.00
11349;BME280;5729;43.570;27.826;2023-05-09T10:22:58;99804.03;;;14.62;100.00
11349;BME280;5729;43.570;27.826;2023-05-09T10:25:37;99802.47;;;14.61;100.00
11349;BME280;5729;43.570;27.826;2023-05-09T10:28:14;99795.88;;;14.13;100.00
11349;BME280;5729;43.570;27.826;2023-05-09T10:30:55;99802.25;;;14.24;100.00
11349;BME280;5729;43.570;27.826;2023-05-09T10:33:40;99808.34;;;14.40;100.00
11349;BME280;5729;43.570;27.826;2023-05-09T10:36:07;99805.53;;;14.86;100.00
11349;BME280;5729;43.570;27.826;2023-05-09T10:38:34;99800.84;;;15.13;100.00
11349;BME280;5729;43.570;27.826;2023-05-09T10:41:00;99809.38;;;15.78;100.00
11349;BME280;5729;43.570;27.826;2023-05-09T10:43:26;99798.25;;;16.93;100.00
11349;BME280;5729;43.570;27.826;2023-05-09T10:45:52;99806.75;;;16.84;100.00
11349;BME280;5729;43.570;27.826;2023-05-09T10:48:18;99805.16;;;16.25;100.00
11349;BME280;5729;43.570;27.826;2023-05-09T10:50:44;99806.09;;;15.62;100.00
11349;BME280;5729;43.570;27.826;2023-05-09T10:53:10;99808.88;;;15.36;100.00
11349;BME280;5729;43.570;27.826;2023-05-09T10:55:53;99800.56;;;15.21;100.00
11349;BME280;5729;43.570;27.826;2023-05-09T10:58:27;99816.31;;;15.09;100.00
11349;BME280;5729;43.570;27.826;2023-05-09T11:00:57;99807.91;;;14.91;100.00
11349;BME280;5729;43.570;27.826;2023-05-09T11:03:24;99801.94;;;14.78;100.00
11349;BME280;5729;43.570;27.826;2023-05-09T11:05:55;99795.91;;;14.62;100.00
11349;BME280;5729;43.570;27.826;2023-05-09T11:10:55;99801.72;;;14.90;100.00
11349;BME280;5729;43.570;27.826;2023-05-09T11:13:29;99801.31;;;15.18;100.00
11349;BME280;5729;43.570;27.826;2023-05-09T11:18:23;99794.91;;;15.67;100.00
11349;BME280;5729;43.570;27.826;2023-05-09T11:20:49;99796.81;;;15.63;100.00
11349;BME280;5729;43.570;27.826;2023-05-09T11:23:18;99781.66;;;17.26;100.00
11349;BME280;5729;43.570;27.826;2023-05-09T11:25:45;99779.19;;;19.52;100.00
11349;BME280;5729;43.570;27.826;2023-05-09T11:28:25;99780.41;;;20.51;100.00
11349;BME280;5729;43.570;27.826;2023-05-09T11:31:14;99765.00;;;21.62;86.29
11349;BME280;5729;43.570;27.826;2023-05-09T11:33:42;99773.44;;;22.02;80.09
11349;BME280;5729;43.570;27.826;2023-05-09T11:36:26;99774.00;;;22.60;71.12
11349;BME280;5729;43.570;27.826;2023-05-09T11:41:28;99766.66;;;22.76;68.46
11349;BME280;5729;43.570;27.826;2023-05-09T11:43:54;99761.88;;;22.80;66.07
11349;BME280;5729;43.570;27.826;2023-05-09T11:46:20;99772.66;;;22.01;66.34
11349;BME280;5729;43.570;27.826;2023-05-09T11:48:47;99773.84;;;21.13;69.23
11349;BME280;5729;43.570;27.826;2023-05-09T11:51:17;99785.59;;;21.47;64.01
11349;BME280;5729;43.570;27.826;2023-05-09T11:53:44;99768.78;;;21.72;64.39
11349;BME280;5729;43.570;27.826;2023-05-09T11:56:12;99770.75;;;21.98;67.30
11349;BME280;5729;43.570;27.826;2023-05-09T11:58:40;99776.34;;;21.34;65.02
11349;BME280;5729;43.570;27.826;2023-05-09T12:01:06;99769.31;;;21.63;68.12
11349;BME280;5729;43.570;27.826;2023-05-09T12:03:32;99767.13;;;22.28;66.78
11349;BME280;5729;43.570;27.826;2023-05-09T12:05:57;99770.28;;;22.27;65.18
11349;BME280;5729;43.570;27.826;2023-05-09T12:08:23;99779.72;;;21.15;64.33
11349;BME280;5729;43.570;27.826;2023-05-09T12:10:49;99763.63;;;20.86;68.90
11349;BME280;5729;43.570;27.826;2023-05-09T12:13:15;99762.09;;;20.82;71.58
11349;BME280;5729;43.570;27.826;2023-05-09T12:15:40;99753.72;;;20.17;74.23
11349;BME280;5729;43.570;27.826;2023-05-09T12:18:06;99756.97;;;19.39;78.13
11349;BME280;5729;43.570;27.826;2023-05-09T12:20:59;99759.44;;;19.12;84.24
11349;BME280;5729;43.570;27.826;2023-05-09T12:23:25;99752.75;;;19.28;85.86
11349;BME280;5729;43.570;27.826;2023-05-09T12:25:55;99751.56;;;19.29;89.98
11349;BME280;5729;43.570;27.826;2023-05-09T12:28:26;99748.47;;;19.19;95.96
11349;BME280;5729;43.570;27.826;2023-05-09T12:30:52;99751.19;;;19.92;93.01
11349;BME280;5729;43.570;27.826;2023-05-09T12:33:18;99756.28;;;19.21;99.47
11349;BME280;5729;43.570;27.826;2023-05-09T12:35:47;99747.91;;;18.41;100.00
11349;BME280;5729;43.570;27.826;2023-05-09T12:38:20;99747.56;;;17.71;100.00
11349;BME280;5729;43.570;27.826;2023-05-09T12:40:47;99767.06;;;16.83;100.00
11349;BME280;5729;43.570;27.826;2023-05-09T12:43:13;99756.34;;;16.46;100.00
11349;BME280;5729;43.570;27.826;2023-05-09T12:45:38;99757.22;;;16.10;100.00
11349;BME280;5729;43.570;27.826;2023-05-09T12:48:04;99763.41;;;16.07;100.00
11349;BME280;5729;43.570;27.826;2023-05-09T12:50:33;99765.09;;;16.22;100.00
11349;BME280;5729;43.570;27.826;2023-05-09T12:53:00;99759.75;;;16.32;100.00
11349;BME280;5729;43.570;27.826;2023-05-09T12:55:26;99753.94;;;16.34;100.00
11349;BME280;5729;43.570;27.826;2023-05-09T12:58:01;99760.84;;;16.28;100.00
11349;BME280;5729;43.570;27.826;2023-05-09T13:00:28;99758.44;;;16.70;100.00
11349;BME280;5729;43.570;27.826;2023-05-09T13:02:53;99762.34;;;16.69;100.00
11349;BME280;5729;43.570;27.826;2023-05-09T13:05:21;99764.03;;;16.33;100.00
11349;BME280;5729;43.570;27.826;2023-05-09T13:07:51;99760.94;;;16.35;100.00
11349;BME280;5729;43.570;27.826;2023-05-09T13:10:18;99763.13;;;16.19;100.00